createdAt,value
2023-05-10T00:00:37.234Z,99123.41
2023-05-10T00:01:18.884Z,99113.06
2023-05-10T00:02:00.626Z,99124.22
2023-05-10T00:02:42.424Z,99111.44
2023-05-10T00:03:24.595Z,99122.16
2023-05-10T00:04:06.377Z,99119.94
2023-05-10T00:04:48.093Z,99086.94
2023-05-10T00:05:29.751Z,99116.34
2023-05-10T00:06:11.416Z,99115.97
2023-05-10T00:06:55.042Z,99108.06
2023-05-10T00:07:36.713Z,99123.75
2023-05-10T00:08:18.502Z,99128.84
2023-05-10T00:09:00.196Z,99115.59
2023-05-10T00:09:41.889Z,99117.00
2023-05-10T00:10:23.763Z,99126.19
2023-05-10T00:11:05.393Z,99117.59
2023-05-10T00:11:47.080Z,99131.88
2023-05-10T00:12:28.750Z,99120.03
2023-05-10T00:13:12.408Z,99106.91
2023-05-10T00:13:54.248Z,99120.25
2023-05-10T00:14:36.241Z,99123.66
2023-05-10T00:15:17.990Z,99125.50
2023-05-10T00:15:59.705Z,99124.09
2023-05-10T00:16:41.838Z,99118.03
2023-05-10T00:17:23.687Z,99118.03
2023-05-10T00:18:05.647Z,99132.56
2023-05-10T00:18:47.389Z,99136.25
2023-05-10T00:19:29.098Z,99131.84
2023-05-10T00:20:11.474Z,99127.16
2023-05-10T00:20:53.285Z,99137.03
2023-05-10T00:21:34.991Z,99132.31
2023-05-10T00:22:16.657Z,99133.72
2023-05-10T00:22:58.352Z,99122.78
2023-05-10T00:23:40.041Z,99137.44
2023-05-10T00:24:24.712Z,99116.84
2023-05-10T00:25:07.157Z,99128.72
2023-05-10T00:25:48.901Z,99126.41
2023-05-10T00:26:30.606Z,99122.34
2023-05-10T00:27:12.301Z,99132.06
2023-05-10T00:27:56.153Z,99119.34
2023-05-10T00:28:37.795Z,99134.84
2023-05-10T00:29:19.602Z,99133.22
2023-05-10T00:30:01.531Z,99121.16
2023-05-10T00:30:45.050Z,99133.22
2023-05-10T00:31:27.311Z,99131.69
2023-05-10T00:32:09.303Z,99116.09
2023-05-10T00:32:52.654Z,99098.19
2023-05-10T00:33:34.385Z,99121.22
2023-05-10T00:34:16.288Z,99128.56
2023-05-10T00:34:58.160Z,99125.53
2023-05-10T00:35:40.016Z,99121.03
2023-05-10T00:36:22.128Z,99124.31
2023-05-10T00:37:03.755Z,99129.31
2023-05-10T00:37:45.833Z,99115.44
2023-05-10T00:38:27.534Z,99118.94
2023-05-10T00:39:09.384Z,99109.31
2023-05-10T00:39:51.083Z,99110.59
2023-05-10T00:40:32.740Z,99128.94
2023-05-10T00:41:19.003Z,99120.34
2023-05-10T00:42:01.696Z,99107.75
2023-05-10T00:42:43.774Z,99133.44
2023-05-10T00:43:25.461Z,99107.91
2023-05-10T00:44:07.380Z,99122.06
2023-05-10T00:44:49.146Z,99132.84
2023-05-10T00:45:33.388Z,99115.66
2023-05-10T00:46:16.507Z,99124.84
2023-05-10T00:46:58.977Z,99128.13
2023-05-10T00:47:41.015Z,99119.63
2023-05-10T00:48:23.335Z,99134.63
2023-05-10T00:49:05.398Z,99134.63
2023-05-10T00:49:47.187Z,99115.66
2023-05-10T00:50:29.346Z,99131.81
2023-05-10T00:51:11.227Z,99124.13
2023-05-10T00:51:55.688Z,99116.72
2023-05-10T00:52:40.141Z,99132.84
2023-05-10T00:53:22.437Z,99130.41
2023-05-10T00:54:04.273Z,99120.88
2023-05-10T00:54:46.021Z,99120.06
2023-05-10T00:55:28.108Z,99126.63
2023-05-10T00:56:09.891Z,99135.81
2023-05-10T00:56:52.697Z,99128.66
2023-05-10T00:57:34.634Z,99131.09
2023-05-10T00:58:16.688Z,99125.59
2023-05-10T00:58:58.605Z,99110.53
2023-05-10T00:59:40.776Z,99116.66
2023-05-10T01:00:22.692Z,99141.75
2023-05-10T01:01:07.763Z,99139.22
2023-05-10T01:02:00.496Z,98951.28
2023-05-10T01:02:42.581Z,99140.41
2023-05-10T01:03:24.383Z,99125.75
2023-05-10T01:04:09.397Z,99137.53
2023-05-10T01:04:53.002Z,99119.63
2023-05-10T01:05:34.789Z,99129.00
2023-05-10T01:06:19.283Z,99132.72
2023-05-10T01:07:00.919Z,99140.13
2023-05-10T01:07:42.798Z,99129.09
2023-05-10T01:08:26.678Z,99129.31
2023-05-10T01:09:08.605Z,99130.13
2023-05-10T01:09:50.311Z,99129.91
2023-05-10T01:10:32.660Z,99131.16
2023-05-10T01:11:14.710Z,99124.28
2023-05-10T01:11:57.376Z,99125.44
2023-05-10T01:12:41.655Z,99130.94
2023-05-10T01:13:42.306Z,99127.00
2023-05-10T01:14:25.821Z,99135.22
2023-05-10T01:15:12.308Z,99127.66
2023-05-10T01:15:57.701Z,99117.75
2023-05-10T01:16:41.680Z,99130.34
2023-05-10T01:17:25.534Z,99134.03
2023-05-10T01:18:09.691Z,99134.25
2023-05-10T01:18:53.147Z,99127.75
2023-05-10T01:19:36.204Z,99105.78
2023-05-10T01:20:20.757Z,99130.66
2023-05-10T01:21:18.213Z,99123.84
2023-05-10T01:22:08.948Z,99128.94
2023-05-10T01:23:32.491Z,99128.38
2023-05-10T01:24:26.604Z,99124.88
2023-05-10T01:25:35.742Z,99128.84
2023-05-10T01:26:39.375Z,99135.75
2023-05-10T01:27:48.705Z,99141.69
2023-05-10T01:29:01.298Z,99129.63
2023-05-10T01:30:15.331Z,99140.88
2023-05-10T01:31:21.771Z,99135.06
2023-05-10T01:32:31.227Z,99139.59
2023-05-10T01:33:31.266Z,99134.94
2023-05-10T01:34:19.273Z,99111.41
2023-05-10T01:35:06.657Z,99122.59
2023-05-10T01:36:09.791Z,99119.31
2023-05-10T01:37:06.169Z,99123.00
2023-05-10T01:38:00.575Z,99129.75
2023-05-10T01:39:03.430Z,99134.19
2023-05-10T01:40:02.434Z,99127.47
2023-05-10T01:40:55.634Z,99141.91
2023-05-10T01:41:49.098Z,99135.75
2023-05-10T01:42:45.225Z,98894.31
2023-05-10T01:43:47.219Z,99126.78
2023-05-10T01:44:37.043Z,99140.88
2023-05-10T01:45:29.816Z,99134.78
2023-05-10T01:46:21.447Z,99138.41
2023-05-10T01:47:12.387Z,99141.69
2023-05-10T01:48:03.567Z,99142.72
2023-05-10T01:48:49.618Z,99146.41
2023-05-10T01:49:37.080Z,99129.88
2023-05-10T01:50:23.548Z,99145.97
2023-05-10T01:51:06.351Z,99145.16
2023-05-10T01:51:52.625Z,99139.06
2023-05-10T01:52:39.432Z,99149.28
2023-05-10T01:53:22.640Z,99142.56
2023-05-10T01:54:06.182Z,99147.22
2023-05-10T01:54:58.870Z,99148.66
2023-05-10T01:55:46.562Z,99142.41
2023-05-10T01:56:31.901Z,99148.56
2023-05-10T01:57:15.194Z,99137.72
2023-05-10T01:58:04.058Z,99149.16
2023-05-10T01:58:49.331Z,99146.72
2023-05-10T01:59:41.751Z,99134.25
2023-05-10T02:00:25.377Z,99148.63
2023-05-10T02:01:09.236Z,99126.19
2023-05-10T02:01:53.626Z,99129.91
2023-05-10T02:02:41.054Z,99149.44
2023-05-10T02:03:25.255Z,99148.25
2023-05-10T02:04:12.329Z,99144.75
2023-05-10T02:04:56.353Z,99133.91
2023-05-10T02:05:39.672Z,99151.22
2023-05-10T02:06:23.227Z,99147.16
2023-05-10T02:07:06.752Z,99148.56
2023-05-10T02:07:49.298Z,99136.91
2023-05-10T02:08:33.872Z,99145.69
2023-05-10T02:09:17.521Z,99136.84
2023-05-10T02:10:00.132Z,99147.91
2023-05-10T02:10:42.697Z,99133.31
2023-05-10T02:11:25.783Z,99136.28
2023-05-10T02:12:09.278Z,99136.84
2023-05-10T02:12:52.783Z,99152.63
2023-05-10T02:13:37.355Z,99157.50
2023-05-10T02:14:20.849Z,99158.31
2023-05-10T02:15:05.407Z,99151.97
2023-05-10T02:15:49.687Z,99152.56
2023-05-10T02:16:32.852Z,99153.38
2023-05-10T02:17:18.102Z,99146.19
2023-05-10T02:18:01.813Z,99141.91
2023-05-10T02:18:43.700Z,99141.22
2023-05-10T02:19:26.985Z,99150.03
2023-05-10T02:20:10.315Z,99152.47
2023-05-10T02:20:54.968Z,99151.66
2023-05-10T02:21:38.241Z,99151.88
2023-05-10T02:22:21.467Z,99132.94
2023-05-10T02:23:04.781Z,99111.03
2023-05-10T02:23:52.424Z,99156.38
2023-05-10T02:24:35.652Z,99160.91
2023-05-10T02:25:20.304Z,99160.69
2023-05-10T02:26:04.855Z,99158.63
2023-05-10T02:26:50.528Z,99135.53
2023-05-10T02:27:32.665Z,99162.31
2023-05-10T02:28:16.585Z,99165.13
2023-05-10T02:28:59.586Z,99165.13
2023-05-10T02:29:42.123Z,99167.44
2023-05-10T02:30:24.686Z,99153.50
2023-05-10T02:31:07.628Z,99158.41
2023-05-10T02:31:51.600Z,99172.91
2023-05-10T02:32:35.298Z,99176.81
2023-05-10T02:33:18.149Z,99169.88
2023-05-10T02:34:02.318Z,99167.22
2023-05-10T02:34:46.519Z,99173.13
2023-05-10T02:35:29.633Z,99171.28
2023-05-10T02:36:13.450Z,99174.94
2023-05-10T02:36:57.037Z,99178.41
2023-05-10T02:37:42.548Z,99146.78
2023-05-10T02:38:26.326Z,99170.53
2023-05-10T02:39:13.735Z,99176.69
2023-05-10T02:39:57.511Z,99157.72
2023-05-10T02:40:41.734Z,99149.59
2023-05-10T02:41:24.922Z,99169.00
2023-05-10T02:42:07.303Z,99165.91
2023-05-10T02:42:51.427Z,99148.41
2023-05-10T02:43:34.685Z,99164.50
2023-05-10T02:44:19.437Z,99169.00
2023-05-10T02:45:06.246Z,99166.63
2023-05-10T02:45:49.166Z,99160.53
2023-05-10T02:46:31.560Z,99169.88
2023-05-10T02:47:13.286Z,99155.16
2023-05-10T02:47:55.570Z,99170.44
2023-05-10T02:48:40.121Z,99171.13
2023-05-10T02:49:21.720Z,99168.47
2023-05-10T02:50:03.798Z,99169.28
2023-05-10T02:50:52.179Z,99174.41
2023-05-10T02:51:37.097Z,99180.09
2023-05-10T02:52:24.214Z,99158.25
2023-05-10T02:53:12.630Z,99167.06
2023-05-10T02:53:59.944Z,99177.63
2023-05-10T02:54:51.712Z,99176.81
2023-05-10T02:55:40.138Z,99179.50
2023-05-10T02:56:29.784Z,99177.88
2023-05-10T02:57:17.329Z,99181.94
2023-05-10T02:58:02.733Z,99182.75
2023-05-10T02:58:44.448Z,99145.97
2023-05-10T02:59:26.105Z,99187.69
2023-05-10T03:00:08.263Z,99170.22
2023-05-10T03:00:50.003Z,99179.56
2023-05-10T03:01:31.658Z,99167.56
2023-05-10T03:02:14.178Z,99178.19
2023-05-10T03:02:56.350Z,99154.16
2023-05-10T03:03:38.101Z,99154.16
2023-05-10T03:04:20.113Z,99180.50
2023-05-10T03:05:02.442Z,99169.81
2023-05-10T03:05:44.159Z,99166.50
2023-05-10T03:06:26.045Z,99172.94
2023-05-10T03:07:08.616Z,99175.50
2023-05-10T03:07:51.751Z,99161.22
2023-05-10T03:08:33.532Z,99160.63
2023-05-10T03:09:16.428Z,99184.91
2023-05-10T03:09:58.392Z,99174.00
2023-05-10T03:11:32.076Z,99155.41
2023-05-10T03:12:35.884Z,99174.13
2023-05-10T03:13:31.136Z,99174.38
2023-05-10T03:14:49.964Z,99171.72
2023-05-10T03:15:43.307Z,99160.75
2023-05-10T03:16:35.567Z,99171.41
2023-05-10T03:17:17.189Z,99177.56
2023-05-10T03:18:27.213Z,99174.56
2023-05-10T03:19:44.269Z,99173.00
2023-05-10T03:20:30.636Z,99171.00
2023-05-10T03:21:14.610Z,99163.97
2023-05-10T03:22:01.109Z,99175.75
2023-05-10T03:22:50.863Z,99182.94
2023-05-10T03:23:41.236Z,99175.16
2023-05-10T03:24:26.467Z,99163.16
2023-05-10T03:25:11.818Z,99160.41
2023-05-10T03:25:54.737Z,99168.75
2023-05-10T03:26:39.571Z,99157.66
2023-05-10T03:27:27.824Z,99182.78
2023-05-10T03:28:11.060Z,99177.88
2023-05-10T03:28:54.280Z,99183.19
2023-05-10T03:29:37.104Z,99171.44
2023-05-10T03:30:20.437Z,99176.25
2023-05-10T03:31:05.388Z,99182.31
2023-05-10T03:31:47.890Z,99182.91
2023-05-10T03:32:32.784Z,99183.44
2023-05-10T03:33:15.165Z,99176.25
2023-05-10T03:33:59.999Z,99173.44
2023-05-10T03:34:44.358Z,99186.09
2023-05-10T03:35:26.026Z,99175.50
2023-05-10T03:36:07.966Z,99182.84
2023-05-10T03:36:49.583Z,99171.06
2023-05-10T03:37:31.235Z,99185.56
2023-05-10T03:38:13.839Z,99185.78
2023-05-10T03:38:55.824Z,99182.56
2023-05-10T03:39:40.310Z,99182.56
2023-05-10T03:40:25.062Z,99179.28
2023-05-10T03:41:06.953Z,99130.41
2023-05-10T03:41:48.565Z,99174.59
2023-05-10T03:42:30.395Z,99190.53
2023-05-10T03:43:12.059Z,99187.63
2023-05-10T03:43:53.729Z,99186.38
2023-05-10T03:44:35.349Z,99192.75
2023-05-10T03:45:17.037Z,99197.25
2023-05-10T03:45:58.953Z,99196.38
2023-05-10T03:46:40.628Z,99193.44
2023-05-10T03:47:22.275Z,99197.56
2023-05-10T03:48:04.297Z,99182.09
2023-05-10T03:48:46.218Z,99200.66
2023-05-10T03:49:27.834Z,99202.59
2023-05-10T03:50:11.178Z,99208.66
2023-05-10T03:50:52.933Z,99208.66
2023-05-10T03:51:34.509Z,99207.63
2023-05-10T03:52:16.413Z,99202.16
2023-05-10T03:52:58.507Z,99206.59
2023-05-10T03:53:40.103Z,99202.81
2023-05-10T03:54:22.479Z,99209.84
2023-05-10T03:55:04.608Z,99164.81
2023-05-10T03:55:47.031Z,99207.78
2023-05-10T03:56:28.574Z,99193.94
2023-05-10T03:57:10.620Z,99212.91
2023-05-10T03:57:52.289Z,99215.19
2023-05-10T03:58:33.976Z,99210.72
2023-05-10T03:59:15.986Z,99207.91
2023-05-10T03:59:57.584Z,99169.25
2023-05-10T04:00:44.589Z,99216.88
2023-05-10T04:01:26.489Z,99168.81
2023-05-10T04:02:08.221Z,99214.66
2023-05-10T04:02:51.435Z,99217.69
2023-05-10T04:03:37.252Z,99203.84
2023-05-10T04:04:21.712Z,99223.00
2023-05-10T04:05:04.895Z,99205.91
2023-05-10T04:05:46.617Z,99213.25
2023-05-10T04:06:28.231Z,99225.84
2023-05-10T04:07:11.339Z,99229.09
2023-05-10T04:07:53.065Z,99217.56
2023-05-10T04:08:34.658Z,99206.06
2023-05-10T04:09:17.521Z,99193.78
2023-05-10T04:09:59.217Z,99224.78
2023-05-10T04:10:40.936Z,99193.72
2023-05-10T04:11:22.951Z,99217.59
2023-05-10T04:12:04.826Z,99223.16
2023-05-10T04:12:46.609Z,99211.84
2023-05-10T04:13:28.568Z,99214.53
2023-05-10T04:14:10.220Z,99189.34
2023-05-10T04:14:52.040Z,99215.03
2023-05-10T04:15:33.723Z,99203.88
2023-05-10T04:16:15.465Z,99185.56
2023-05-10T04:16:57.117Z,99160.91
2023-05-10T04:17:38.904Z,99215.47
2023-05-10T04:18:20.687Z,99200.38
2023-05-10T04:19:02.435Z,99207.78
2023-05-10T04:19:44.018Z,99212.22
2023-05-10T04:20:25.678Z,99210.16
2023-05-10T04:21:13.403Z,99210.97
2023-05-10T04:21:54.984Z,99204.69
2023-05-10T04:22:36.673Z,99223.03
2023-05-10T04:23:18.570Z,99198.28
2023-05-10T04:24:00.349Z,99214.81
2023-05-10T04:24:41.981Z,99153.50
2023-05-10T04:25:23.634Z,99202.84
2023-05-10T04:26:05.285Z,99217.34
2023-05-10T04:26:46.844Z,99192.06
2023-05-10T04:27:28.564Z,99212.69
2023-05-10T04:28:10.164Z,99204.53
2023-05-10T04:28:52.110Z,99220.38
2023-05-10T04:29:33.674Z,99200.38
2023-05-10T04:30:15.779Z,99214.22
2023-05-10T04:31:07.911Z,99221.19
2023-05-10T04:31:49.843Z,99220.81
2023-05-10T04:32:32.337Z,99224.50
2023-05-10T04:33:13.957Z,99220.81
2023-05-10T04:33:55.599Z,99223.91
2023-05-10T04:34:38.189Z,99222.06
2023-05-10T04:35:20.009Z,99223.69
2023-05-10T04:36:02.216Z,99204.34
2023-05-10T04:36:44.172Z,99227.19
2023-05-10T04:37:25.769Z,99204.97
2023-05-10T04:38:07.389Z,99197.91
2023-05-10T04:38:49.049Z,99192.81
2023-05-10T04:39:30.667Z,99232.72
2023-05-10T04:40:12.709Z,99231.91
2023-05-10T04:40:55.094Z,99239.09
2023-05-10T04:41:38.634Z,99225.41
2023-05-10T04:42:20.356Z,99206.50
2023-05-10T04:43:02.026Z,99212.34
2023-05-10T04:43:43.708Z,99225.41
2023-05-10T04:44:25.328Z,99229.41
2023-05-10T04:45:07.908Z,99163.63
2023-05-10T04:45:49.614Z,99230.00
2023-05-10T04:46:31.283Z,99229.19
2023-05-10T04:47:14.102Z,99231.03
2023-05-10T04:47:56.661Z,99234.22
2023-05-10T04:48:38.248Z,99233.00
2023-05-10T04:49:20.025Z,99238.72
2023-05-10T04:50:01.822Z,99236.66
2023-05-10T04:50:43.517Z,99231.97
2023-05-10T04:51:25.417Z,99235.56
2023-05-10T04:52:07.186Z,99236.66
2023-05-10T04:52:48.841Z,99240.13
2023-05-10T04:53:30.711Z,99214.97
2023-05-10T04:54:12.402Z,99180.75
2023-05-10T04:54:54.097Z,99238.63
2023-05-10T04:55:36.550Z,99240.25
2023-05-10T04:56:18.221Z,99240.47
2023-05-10T04:56:59.845Z,99238.41
2023-05-10T04:57:41.481Z,99244.13
2023-05-10T04:58:23.113Z,99237.81
2023-05-10T04:59:04.940Z,99248.47
2023-05-10T04:59:49.022Z,99233.97
2023-05-10T05:00:31.956Z,99223.22
2023-05-10T05:01:13.629Z,99244.38
2023-05-10T05:01:55.247Z,99244.38
2023-05-10T05:02:36.951Z,99245.59
2023-05-10T05:03:18.747Z,99237.00
2023-05-10T05:04:01.245Z,99251.22
2023-05-10T05:04:43.126Z,99243.22
2023-05-10T05:05:24.792Z,99231.72
2023-05-10T05:06:06.714Z,99188.56
2023-05-10T05:06:48.360Z,99234.78
2023-05-10T05:07:31.466Z,99218.91
2023-05-10T05:08:13.668Z,99241.00
2023-05-10T05:08:55.299Z,99233.44
2023-05-10T05:09:37.091Z,99212.06
2023-05-10T05:10:19.137Z,99238.56
2023-05-10T05:11:00.990Z,99227.94
2023-05-10T05:11:42.550Z,99244.72
2023-05-10T05:12:24.205Z,99246.56
2023-05-10T05:13:06.271Z,99234.91
2023-05-10T05:13:47.881Z,99248.53
2023-05-10T05:14:29.505Z,99249.56
2023-05-10T05:15:11.716Z,99225.28
2023-05-10T05:15:53.425Z,99243.44
2023-05-10T05:16:35.749Z,99237.59
2023-05-10T05:17:17.511Z,99240.19
2023-05-10T05:17:59.106Z,99189.44
2023-05-10T05:18:40.761Z,99238.09
2023-05-10T05:19:22.440Z,99244.19
2023-05-10T05:20:04.737Z,99240.47
2023-05-10T05:20:46.361Z,99237.00
2023-05-10T05:21:28.083Z,99241.28
2023-05-10T05:22:09.697Z,99241.06
2023-05-10T05:22:51.288Z,99244.91
2023-05-10T05:23:33.342Z,99251.06
2023-05-10T05:24:14.987Z,99223.59
2023-05-10T05:24:57.419Z,99242.22
2023-05-10T05:25:39.025Z,99245.28
2023-05-10T05:26:22.197Z,99248.16
2023-05-10T05:27:03.738Z,99251.22
2023-05-10T05:27:45.432Z,99248.16
2023-05-10T05:28:27.477Z,99253.50
2023-05-10T05:29:09.282Z,99239.22
2023-05-10T05:29:54.767Z,99253.50
2023-05-10T05:30:36.352Z,99211.34
2023-05-10T05:31:18.679Z,99252.31
2023-05-10T05:32:00.564Z,99246.97
2023-05-10T05:32:42.275Z,99235.81
2023-05-10T05:33:23.915Z,99208.13
2023-05-10T05:34:06.771Z,99246.16
2023-05-10T05:34:49.181Z,99252.69
2023-05-10T05:35:30.881Z,99249.19
2023-05-10T05:36:12.584Z,99240.09
2023-05-10T05:36:54.780Z,99259.66
2023-05-10T05:37:36.412Z,99246.75
2023-05-10T05:38:18.615Z,99250.34
2023-05-10T05:39:00.214Z,99254.75
2023-05-10T05:39:42.140Z,99254.53
2023-05-10T05:40:23.888Z,99243.16
2023-05-10T05:41:05.711Z,99244.91
2023-05-10T05:41:47.557Z,99239.13
2023-05-10T05:42:29.153Z,99255.41
2023-05-10T05:43:10.849Z,99258.06
2023-05-10T05:43:54.959Z,99238.97
2023-05-10T05:44:36.666Z,99255.03
2023-05-10T05:45:18.723Z,99254.47
2023-05-10T05:46:00.689Z,99238.75
2023-05-10T05:46:42.350Z,99187.25
2023-05-10T05:47:24.105Z,99253.50
2023-05-10T05:48:06.033Z,99254.91
2023-05-10T05:48:48.522Z,99241.63
2023-05-10T05:49:30.202Z,99243.81
2023-05-10T05:50:11.976Z,99242.28
2023-05-10T05:50:57.532Z,99227.47
2023-05-10T05:51:41.949Z,99255.63
2023-05-10T05:52:23.586Z,99255.50
2023-05-10T05:53:05.195Z,99187.03
2023-05-10T05:53:46.811Z,99245.81
2023-05-10T05:54:31.698Z,99244.88
2023-05-10T05:55:13.798Z,99239.91
2023-05-10T05:55:57.080Z,99240.06
2023-05-10T05:56:38.862Z,99235.97
2023-05-10T05:57:21.340Z,99222.38
2023-05-10T05:58:03.076Z,99232.56
2023-05-10T05:58:45.753Z,99215.13
2023-05-10T05:59:28.708Z,99234.09
2023-05-10T06:00:10.668Z,99245.34
2023-05-10T06:00:54.961Z,99227.06
2023-05-10T06:01:36.638Z,99251.09
2023-05-10T06:02:18.469Z,99246.19
2023-05-10T06:03:00.196Z,99254.66
2023-05-10T06:03:42.106Z,99247.56
2023-05-10T06:04:23.976Z,99236.28
2023-05-10T06:05:06.119Z,99252.34
2023-05-10T06:05:48.030Z,99245.38
2023-05-10T06:06:29.682Z,99258.28
2023-05-10T06:07:11.261Z,99253.88
2023-05-10T06:07:52.878Z,99261.22
2023-05-10T06:08:34.924Z,99253.81
2023-05-10T06:09:16.845Z,99257.06
2023-05-10T06:09:58.566Z,99250.91
2023-05-10T06:10:40.310Z,99254.25
2023-05-10T06:11:22.315Z,99260.41
2023-05-10T06:12:05.095Z,99252.63
2023-05-10T06:12:46.755Z,99265.84
2023-05-10T06:13:33.061Z,99269.19
2023-05-10T06:14:14.750Z,99258.44
2023-05-10T06:14:56.500Z,99269.72
2023-05-10T06:15:38.661Z,99274.47
2023-05-10T06:16:20.262Z,99259.34
2023-05-10T06:17:02.009Z,99268.09
2023-05-10T06:17:44.313Z,99270.00
2023-05-10T06:18:27.422Z,99268.53
2023-05-10T06:19:09.089Z,99281.16
2023-05-10T06:19:51.036Z,99261.56
2023-05-10T06:20:32.741Z,99276.78
2023-05-10T06:21:14.407Z,99208.31
2023-05-10T06:21:57.931Z,99264.03
2023-05-10T06:22:39.523Z,99273.78
2023-05-10T06:23:21.072Z,99163.06
2023-05-10T06:24:03.662Z,99264.59
2023-05-10T06:24:45.383Z,99242.06
2023-05-10T06:25:27.291Z,99260.34
2023-05-10T06:26:09.039Z,99261.38
2023-05-10T06:26:51.373Z,99268.69
2023-05-10T06:27:33.008Z,99171.19
2023-05-10T06:28:14.597Z,99264.47
2023-05-10T06:28:56.153Z,99272.34
2023-05-10T06:29:37.743Z,99274.19
2023-05-10T06:30:19.545Z,99269.56
2023-05-10T06:31:01.143Z,99272.22
2023-05-10T06:31:42.827Z,99276.16
2023-05-10T06:32:24.563Z,99260.47
2023-05-10T06:33:06.434Z,99276.38
2023-05-10T06:33:48.352Z,99272.88
2023-05-10T06:34:29.996Z,99277.03
2023-05-10T06:35:11.798Z,99279.47
2023-05-10T06:35:53.448Z,99277.03
2023-05-10T06:36:35.646Z,99272.63
2023-05-10T06:37:17.263Z,99275.19
2023-05-10T06:37:58.904Z,99273.56
2023-05-10T06:38:40.541Z,99278.06
2023-05-10T06:39:22.166Z,99283.50
2023-05-10T06:40:04.444Z,99284.84
2023-05-10T06:40:46.317Z,99271.22
2023-05-10T06:41:28.028Z,99273.44
2023-05-10T06:42:10.053Z,99283.44
2023-05-10T06:42:52.164Z,99265.09
2023-05-10T06:43:33.773Z,99291.59
2023-05-10T06:44:15.708Z,99276.47
2023-05-10T06:44:57.309Z,99288.47
2023-05-10T06:45:38.948Z,99286.63
2023-05-10T06:46:20.571Z,99291.06
2023-05-10T06:47:02.569Z,99262.31
2023-05-10T06:47:44.254Z,99289.34
2023-05-10T06:48:26.851Z,99287.44
2023-05-10T06:49:08.795Z,99292.53
2023-05-10T06:49:50.454Z,99290.00
2023-05-10T06:50:32.089Z,99290.81
2023-05-10T06:51:13.676Z,99283.03
2023-05-10T06:51:56.978Z,99278.22
2023-05-10T06:52:38.801Z,99289.19
2023-05-10T06:53:20.494Z,99292.44
2023-05-10T06:54:02.948Z,99292.00
2023-05-10T06:54:45.085Z,99290.38
2023-05-10T06:55:27.343Z,99292.59
2023-05-10T06:56:09.368Z,99290.13
2023-05-10T06:56:50.958Z,99278.72
2023-05-10T06:57:33.029Z,99294.44
2023-05-10T06:58:14.610Z,99295.25
2023-05-10T06:58:56.816Z,99291.63
2023-05-10T06:59:38.746Z,99293.25
2023-05-10T07:00:21.574Z,99292.81
2023-05-10T07:01:05.044Z,99292.59
2023-05-10T07:01:46.798Z,99273.25
2023-05-10T07:02:28.941Z,99287.91
2023-05-10T07:03:11.740Z,99292.81
2023-05-10T07:03:53.853Z,99288.72
2023-05-10T07:04:35.460Z,99282.56
2023-05-10T07:05:17.485Z,99278.16
2023-05-10T07:06:04.715Z,99291.78
2023-05-10T07:06:47.315Z,99280.13
2023-05-10T07:07:29.814Z,99287.69
2023-05-10T07:08:11.498Z,99243.91
2023-05-10T07:08:53.202Z,99277.91
2023-05-10T07:09:34.832Z,99287.69
2023-05-10T07:10:17.403Z,99285.91
2023-05-10T07:11:08.090Z,99273.25
2023-05-10T07:11:49.641Z,99284.44
2023-05-10T07:12:31.549Z,99287.91
2023-05-10T07:13:13.200Z,99290.22
2023-05-10T07:13:54.841Z,99289.19
2023-05-10T07:14:38.772Z,99295.22
2023-05-10T07:15:20.631Z,99284.97
2023-05-10T07:16:02.947Z,99274.25
2023-05-10T07:16:45.652Z,99295.50
2023-05-10T07:17:27.480Z,99302.47
2023-05-10T07:18:09.410Z,99253.81
2023-05-10T07:18:51.665Z,99299.66
2023-05-10T07:19:33.695Z,99295.16
2023-05-10T07:20:15.441Z,99291.88
2023-05-10T07:20:58.417Z,99297.94
2023-05-10T07:21:41.412Z,99287.22
2023-05-10T07:22:23.101Z,99261.72
2023-05-10T07:23:04.789Z,99308.41
2023-05-10T07:23:46.503Z,99287.81
2023-05-10T07:24:28.286Z,99307.53
2023-05-10T07:25:10.412Z,99301.59
2023-05-10T07:25:53.181Z,99292.84
2023-05-10T07:26:34.855Z,99271.94
2023-05-10T07:27:16.503Z,99301.91
2023-05-10T07:27:58.158Z,99265.72
2023-05-10T07:28:40.075Z,99310.13
2023-05-10T07:29:21.834Z,99299.88
2023-05-10T07:30:03.719Z,99318.41
2023-05-10T07:30:46.465Z,99299.59
2023-05-10T07:31:28.174Z,99311.50
2023-05-10T07:32:09.923Z,99304.84
2023-05-10T07:32:51.711Z,99292.06
2023-05-10T07:33:33.339Z,99294.66
2023-05-10T07:34:14.958Z,99295.53
2023-05-10T07:34:56.614Z,99276.72
2023-05-10T07:35:38.421Z,99291.69
2023-05-10T07:36:20.067Z,99296.03
2023-05-10T07:37:02.327Z,99291.16
2023-05-10T07:37:44.056Z,99291.84
2023-05-10T07:38:25.729Z,99291.84
2023-05-10T07:39:07.802Z,99290.97
2023-05-10T07:39:49.472Z,99290.00
2023-05-10T07:40:32.240Z,99296.91
2023-05-10T07:41:13.855Z,99289.56
2023-05-10T07:41:56.761Z,99287.13
2023-05-10T07:42:39.080Z,99284.94
2023-05-10T07:43:20.805Z,99284.00
2023-05-10T07:44:02.787Z,99290.50
2023-05-10T07:44:44.553Z,99251.91
2023-05-10T07:45:26.217Z,99260.16
2023-05-10T07:46:07.963Z,99283.41
2023-05-10T07:46:49.781Z,99286.31
2023-05-10T07:47:31.434Z,99280.06
2023-05-10T07:48:13.007Z,99283.31
2023-05-10T07:48:54.591Z,99276.69
2023-05-10T07:49:36.593Z,99284.44
2023-05-10T07:50:18.412Z,99274.25
2023-05-10T07:50:59.973Z,99283.53
2023-05-10T07:51:43.243Z,99276.56
2023-05-10T07:52:24.884Z,99278.41
2023-05-10T07:53:06.503Z,99279.91
2023-05-10T07:53:48.204Z,99281.91
2023-05-10T07:54:29.889Z,99267.47
2023-05-10T07:55:11.795Z,99271.06
2023-05-10T07:55:59.460Z,99284.00
2023-05-10T07:56:45.768Z,99273.16
2023-05-10T07:57:27.446Z,99261.53
2023-05-10T07:58:09.043Z,99274.69
2023-05-10T07:58:50.687Z,99275.13
2023-05-10T07:59:33.142Z,99278.03
2023-05-10T08:00:18.981Z,99258.88
2023-05-10T08:01:00.649Z,99278.41
2023-05-10T08:01:42.918Z,99278.19
2023-05-10T08:02:24.645Z,99261.09
2023-05-10T08:03:06.485Z,99279.91
2023-05-10T08:03:48.514Z,99275.88
2023-05-10T08:04:30.236Z,99282.59
2023-05-10T08:05:11.913Z,99266.09
2023-05-10T08:05:53.625Z,99280.28
2023-05-10T08:06:35.583Z,99290.63
2023-05-10T08:07:17.280Z,99282.34
2023-05-10T08:07:58.961Z,99284.69
2023-05-10T08:08:41.129Z,99288.06
2023-05-10T08:09:25.096Z,99260.38
2023-05-10T08:10:07.765Z,99281.66
2023-05-10T08:10:49.403Z,99294.22
2023-05-10T08:11:31.424Z,99268.09
2023-05-10T08:12:14.072Z,99292.59
2023-05-10T08:12:55.683Z,99284.72
2023-05-10T08:13:37.311Z,99295.50
2023-05-10T08:14:19.042Z,99239.00
2023-05-10T08:15:00.980Z,99295.06
2023-05-10T08:15:42.667Z,99290.06
2023-05-10T08:16:24.361Z,99281.22
2023-05-10T08:17:06.279Z,99279.47
2023-05-10T08:17:47.950Z,99284.59
2023-05-10T08:18:29.690Z,99283.78
2023-05-10T08:19:11.374Z,99283.78
2023-05-10T08:19:53.044Z,99274.91
2023-05-10T08:20:34.616Z,99276.09
2023-05-10T08:21:16.793Z,99268.66
2023-05-10T08:21:58.705Z,99275.38
2023-05-10T08:22:40.299Z,99283.28
2023-05-10T08:23:21.955Z,99285.84
2023-05-10T08:24:03.777Z,99290.16
2023-05-10T08:24:45.545Z,99265.28
2023-05-10T08:25:27.277Z,99287.69
2023-05-10T08:26:08.926Z,99289.47
2023-05-10T08:26:50.626Z,99270.28
2023-05-10T08:27:32.194Z,99285.13
2023-05-10T08:28:13.904Z,99285.09
2023-05-10T08:28:55.450Z,99285.53
2023-05-10T08:29:49.010Z,99294.13
2023-05-10T08:30:31.951Z,99291.56
2023-05-10T08:31:13.567Z,99299.69
2023-05-10T08:31:55.749Z,99295.31
2023-05-10T08:32:38.935Z,99301.38